createdAt,value
2018-12-02T00:00:56.671Z,997.74
2018-12-02T00:01:56.709Z,997.71
2018-12-02T00:02:56.665Z,997.72
2018-12-02T00:03:56.675Z,997.69
2018-12-02T00:04:56.690Z,997.68
2018-12-02T00:05:56.639Z,997.70
2018-12-02T00:06:56.612Z,997.64
2018-12-02T00:07:56.620Z,997.67
2018-12-02T00:08:56.698Z,997.68
2018-12-02T00:09:56.629Z,997.55
2018-12-02T00:10:56.601Z,997.55
2018-12-02T00:11:56.609Z,997.60
2018-12-02T00:12:56.622Z,997.62
2018-12-02T00:13:56.613Z,997.55
2018-12-02T00:14:56.630Z,997.56
2018-12-02T00:15:56.605Z,997.52
2018-12-02T00:16:56.546Z,997.51
2018-12-02T00:17:56.597Z,997.61
2018-12-02T00:18:56.590Z,997.49
2018-12-02T00:19:56.723Z,997.53
2018-12-02T00:20:56.532Z,997.49
2018-12-02T00:21:56.527Z,997.54
2018-12-02T00:22:56.555Z,997.44
2018-12-02T00:23:56.528Z,997.45
2018-12-02T00:24:56.590Z,997.44
2018-12-02T00:25:56.516Z,997.46
2018-12-02T00:26:56.521Z,997.44
2018-12-02T00:27:56.506Z,997.41
2018-12-02T00:28:56.521Z,997.41
2018-12-02T00:29:56.527Z,997.36
2018-12-02T00:30:56.512Z,997.41
2018-12-02T00:31:56.544Z,997.39
2018-12-02T00:32:56.480Z,997.43
2018-12-02T00:33:56.489Z,997.47
2018-12-02T00:34:56.498Z,997.42
2018-12-02T00:35:56.500Z,997.42
2018-12-02T00:36:56.455Z,997.39
2018-12-02T00:37:56.471Z,997.34
2018-12-02T00:38:56.484Z,997.45
2018-12-02T00:39:56.413Z,997.41
2018-12-02T00:40:56.447Z,997.36
2018-12-02T00:41:56.495Z,997.44
2018-12-02T00:42:56.420Z,997.36
2018-12-02T00:43:56.431Z,997.39
2018-12-02T00:44:56.414Z,997.38
2018-12-02T00:45:56.419Z,997.27
2018-12-02T00:46:56.408Z,997.26
2018-12-02T00:47:56.390Z,997.30
2018-12-02T00:48:56.393Z,997.29
2018-12-02T00:49:56.414Z,997.30
2018-12-02T00:50:56.431Z,997.25
2018-12-02T00:51:56.364Z,997.31
2018-12-02T00:52:56.355Z,997.24
2018-12-02T00:53:56.390Z,997.29
2018-12-02T00:54:56.352Z,997.17
2018-12-02T00:55:56.423Z,997.20
2018-12-02T00:56:56.331Z,997.18
2018-12-02T00:57:56.340Z,997.18
2018-12-02T00:58:56.373Z,997.17
2018-12-02T00:59:56.347Z,997.08
2018-12-02T01:00:56.324Z,997.09
2018-12-02T01:01:56.325Z,997.09
2018-12-02T01:02:56.338Z,997.03
2018-12-02T01:03:56.321Z,997.02
2018-12-02T01:04:56.301Z,997.07
2018-12-02T01:05:56.308Z,997.06
2018-12-02T01:06:56.271Z,997.02
2018-12-02T01:07:56.305Z,997.05
2018-12-02T01:08:56.275Z,996.98
2018-12-02T01:09:56.293Z,997.02
2018-12-02T01:10:56.269Z,996.94
2018-12-02T01:11:56.261Z,996.94
2018-12-02T01:12:56.276Z,996.89
2018-12-02T01:13:56.230Z,996.90
2018-12-02T01:14:56.245Z,996.88
2018-12-02T01:15:56.221Z,996.85
2018-12-02T01:16:56.248Z,996.83
2018-12-02T01:17:56.224Z,996.83
2018-12-02T01:18:56.213Z,996.88
2018-12-02T01:19:56.199Z,996.79
2018-12-02T01:20:56.247Z,996.71
2018-12-02T01:21:56.182Z,996.75
2018-12-02T01:22:56.186Z,996.61
2018-12-02T01:23:56.215Z,996.67
2018-12-02T01:24:56.193Z,996.61
2018-12-02T01:25:56.216Z,996.60
2018-12-02T01:26:56.165Z,996.62
2018-12-02T01:27:56.162Z,996.63
2018-12-02T01:28:56.187Z,996.57
2018-12-02T01:29:56.132Z,996.52
2018-12-02T01:30:56.158Z,996.51
2018-12-02T01:31:56.173Z,996.57
2018-12-02T01:32:56.139Z,996.48
2018-12-02T01:33:56.163Z,996.50
2018-12-02T01:34:56.153Z,996.48
2018-12-02T01:35:56.159Z,996.51
2018-12-02T01:36:56.161Z,996.49
2018-12-02T01:37:56.121Z,996.52
2018-12-02T01:38:56.125Z,996.53
2018-12-02T01:39:56.112Z,996.50
2018-12-02T01:40:56.134Z,996.43
2018-12-02T01:41:56.090Z,996.49
2018-12-02T01:42:56.123Z,996.42
2018-12-02T01:43:56.095Z,996.39
2018-12-02T01:44:56.133Z,996.40
2018-12-02T01:45:56.092Z,996.28
2018-12-02T01:46:56.065Z,996.31
2018-12-02T01:47:56.081Z,996.33
2018-12-02T01:48:56.069Z,996.27
2018-12-02T01:49:56.083Z,996.26
2018-12-02T01:50:56.035Z,996.20
2018-12-02T01:51:56.047Z,996.19
2018-12-02T01:52:56.192Z,996.21
2018-12-02T01:53:56.020Z,996.21
2018-12-02T01:54:56.812Z,996.23
2018-12-02T01:55:56.030Z,996.17
2018-12-02T01:56:56.008Z,996.10
2018-12-02T01:57:56.033Z,996.11
2018-12-02T01:58:56.050Z,996.08
2018-12-02T01:59:55.994Z,996.03
2018-12-02T02:00:56.012Z,996.09
2018-12-02T02:01:55.990Z,996.05
2018-12-02T02:02:56.049Z,996.06
2018-12-02T02:03:55.978Z,996.06
2018-12-02T02:04:57.791Z,996.04
2018-12-02T02:05:56.045Z,996.08
2018-12-02T02:06:59.366Z,996.01
2018-12-02T02:07:55.986Z,995.98
2018-12-02T02:08:55.972Z,996.00
2018-12-02T02:09:58.856Z,995.96
2018-12-02T02:10:55.961Z,995.90
2018-12-02T02:11:55.997Z,995.82
2018-12-02T02:12:57.628Z,995.77
2018-12-02T02:13:56.015Z,995.78
2018-12-02T02:14:58.150Z,995.79
2018-12-02T02:15:55.913Z,995.82
2018-12-02T02:16:57.138Z,995.85
2018-12-02T02:17:55.902Z,995.85
2018-12-02T02:18:55.948Z,995.78
2018-12-02T02:19:55.944Z,995.73
2018-12-02T02:20:55.904Z,995.69
2018-12-02T02:21:55.950Z,995.66
2018-12-02T02:22:58.060Z,995.67
2018-12-02T02:23:55.920Z,995.66
2018-12-02T02:24:57.873Z,995.67
2018-12-02T02:25:55.844Z,995.56
2018-12-02T02:26:55.863Z,995.63
2018-12-02T02:27:59.872Z,995.56
2018-12-02T02:28:57.096Z,995.50
2018-12-02T02:29:55.971Z,995.51
2018-12-02T02:30:55.950Z,995.45
2018-12-02T02:31:56.289Z,995.47
2018-12-02T02:32:55.841Z,995.42
2018-12-02T02:33:59.690Z,995.47
2018-12-02T02:35:00.238Z,995.48
2018-12-02T02:35:55.830Z,995.48
2018-12-02T02:36:56.973Z,995.47
2018-12-02T02:37:55.837Z,995.44
2018-12-02T02:38:55.891Z,995.41
2018-12-02T02:39:55.813Z,995.39
2018-12-02T02:40:57.897Z,995.34
2018-12-02T02:41:55.789Z,995.31
2018-12-02T02:42:55.813Z,995.33
2018-12-02T02:43:55.874Z,995.36
2018-12-02T02:44:59.188Z,995.34
2018-12-02T02:45:55.854Z,995.25
2018-12-02T02:46:57.908Z,995.22
2018-12-02T02:47:55.759Z,995.28
2018-12-02T02:50:29.302Z,995.30
2018-12-02T02:51:32.776Z,995.38
2018-12-02T02:53:24.066Z,995.25
2018-12-02T02:54:25.012Z,995.26
2018-12-02T02:56:18.620Z,995.26
2018-12-02T02:57:18.409Z,995.21
2018-12-02T02:59:13.102Z,995.14
2018-12-02T03:00:13.057Z,995.09
2018-12-02T03:02:07.950Z,995.07
2018-12-02T03:03:07.743Z,995.09
2018-12-02T03:05:04.093Z,995.07
2018-12-02T03:06:04.519Z,995.06
2018-12-02T03:07:58.590Z,995.02
2018-12-02T03:08:58.805Z,995.01
2018-12-02T03:10:52.914Z,995.02
2018-12-02T03:11:53.625Z,995.04
2018-12-02T03:12:53.243Z,995.04
2018-12-02T03:13:53.333Z,994.94
2018-12-02T03:14:53.767Z,994.99
2018-12-02T03:15:52.935Z,994.93
2018-12-02T03:16:52.790Z,994.94
2018-12-02T03:17:53.668Z,995.00
2018-12-02T03:18:53.241Z,994.95
2018-12-02T03:19:53.629Z,995.02
2018-12-02T03:20:52.839Z,995.01
2018-12-02T03:21:53.346Z,995.09
2018-12-02T03:22:53.710Z,994.95
2018-12-02T03:23:53.220Z,995.02
2018-12-02T03:24:53.798Z,994.97
2018-12-02T03:25:52.947Z,994.97
2018-12-02T03:26:53.898Z,994.89
2018-12-02T03:27:53.692Z,995.01
2018-12-02T03:28:53.172Z,994.99
2018-12-02T03:29:53.845Z,994.97
2018-12-02T03:30:52.877Z,994.99
2018-12-02T03:31:53.865Z,995.01
2018-12-02T03:32:53.778Z,994.94
2018-12-02T03:33:53.325Z,994.99
2018-12-02T03:34:53.753Z,994.97
2018-12-02T03:35:53.769Z,994.92
2018-12-02T03:36:53.703Z,994.93
2018-12-02T03:37:53.710Z,994.93
2018-12-02T03:38:53.618Z,994.93
2018-12-02T03:39:59.735Z,994.86
2018-12-02T03:40:53.829Z,994.87
2018-12-02T03:41:53.697Z,994.84
2018-12-02T03:42:53.832Z,994.78
2018-12-02T03:43:54.003Z,994.90
2018-12-02T03:44:53.957Z,994.83
2018-12-02T03:45:53.952Z,994.70
2018-12-02T03:46:54.068Z,994.74
2018-12-02T03:47:54.017Z,994.92
2018-12-02T03:48:54.005Z,994.86
2018-12-02T03:49:54.233Z,994.77
2018-12-02T03:50:53.967Z,994.82
2018-12-02T03:51:53.504Z,994.83
2018-12-02T03:52:54.017Z,994.87
2018-12-02T03:53:55.443Z,994.84
2018-12-02T03:54:53.816Z,994.81
2018-12-02T03:55:53.985Z,994.81
2018-12-02T03:56:55.383Z,994.71
2018-12-02T03:57:55.211Z,994.81
2018-12-02T03:58:55.218Z,994.76
2018-12-02T03:59:53.466Z,994.74
2018-12-02T04:00:53.317Z,994.71
2018-12-02T04:01:55.249Z,994.77
2018-12-02T04:02:55.397Z,994.69
2018-12-02T04:03:53.496Z,994.65
2018-12-02T04:04:53.714Z,994.64
2018-12-02T04:05:53.614Z,994.66
2018-12-02T04:06:53.634Z,994.63
2018-12-02T04:07:53.626Z,994.62
2018-12-02T04:08:55.328Z,994.60
2018-12-02T04:09:55.374Z,994.55
2018-12-02T04:10:55.377Z,994.52
2018-12-02T04:11:53.498Z,994.48
2018-12-02T04:12:53.539Z,994.48
2018-12-02T04:13:53.573Z,994.47
2018-12-02T04:14:53.500Z,994.42
2018-12-02T04:15:53.440Z,994.41
2018-12-02T04:16:53.451Z,994.42
2018-12-02T04:17:53.499Z,994.38
2018-12-02T04:18:53.421Z,994.46
2018-12-02T04:19:53.010Z,994.35
2018-12-02T04:20:53.508Z,994.32
2018-12-02T04:21:53.514Z,994.33
2018-12-02T04:22:53.529Z,994.28
2018-12-02T04:23:53.501Z,994.23
2018-12-02T04:24:53.504Z,994.29
2018-12-02T04:25:53.463Z,994.21
2018-12-02T04:26:53.413Z,994.26
2018-12-02T04:27:52.982Z,994.22
2018-12-02T04:28:53.222Z,994.22
2018-12-02T04:29:53.247Z,994.20
2018-12-02T04:30:53.360Z,994.17
2018-12-02T04:31:53.351Z,994.13
2018-12-02T04:32:53.397Z,994.14
2018-12-02T04:33:52.971Z,994.04
2018-12-02T04:34:53.302Z,994.08
2018-12-02T04:35:52.959Z,994.06
2018-12-02T04:36:53.487Z,994.00
2018-12-02T04:37:53.450Z,994.08
2018-12-02T04:38:53.305Z,994.04
2018-12-02T04:39:53.471Z,993.99
2018-12-02T04:40:53.449Z,994.00
2018-12-02T04:41:53.462Z,994.02
2018-12-02T04:42:53.347Z,994.00
2018-12-02T04:43:53.576Z,994.00
2018-12-02T04:44:53.178Z,993.91
2018-12-02T04:45:53.330Z,993.97
2018-12-02T04:46:53.226Z,993.92
2018-12-02T04:47:53.321Z,994.01
2018-12-02T04:48:53.324Z,993.95
2018-12-02T04:49:53.299Z,993.87
2018-12-02T04:50:53.138Z,993.87
2018-12-02T04:51:53.400Z,993.89
2018-12-02T04:52:53.388Z,993.80
2018-12-02T04:53:53.215Z,993.81
2018-12-02T04:54:52.735Z,993.82
2018-12-02T04:55:53.214Z,993.87
2018-12-02T04:56:53.392Z,993.81
2018-12-02T04:57:53.324Z,993.81
2018-12-02T04:58:53.263Z,993.92
2018-12-02T04:59:53.292Z,993.87
2018-12-02T05:00:53.260Z,993.82
2018-12-02T05:01:52.864Z,993.77
2018-12-02T05:02:52.930Z,993.75
2018-12-02T05:03:53.379Z,993.72
2018-12-02T05:04:53.384Z,993.76
2018-12-02T05:05:53.265Z,993.72
2018-12-02T05:06:59.545Z,993.75
2018-12-02T05:07:52.871Z,993.64
2018-12-02T05:08:53.227Z,993.63
2018-12-02T05:09:53.240Z,993.57
2018-12-02T05:10:53.189Z,993.52
2018-12-02T05:11:53.261Z,993.58
2018-12-02T05:12:53.357Z,993.53
2018-12-02T05:13:53.397Z,993.65
2018-12-02T05:14:59.237Z,993.63
2018-12-02T05:15:53.223Z,993.52
2018-12-02T05:16:53.289Z,993.60
2018-12-02T05:17:53.273Z,993.50
2018-12-02T05:18:53.256Z,993.50
2018-12-02T05:19:53.209Z,993.47
2018-12-02T05:20:52.985Z,993.49
2018-12-02T05:21:54.651Z,993.47
2018-12-02T05:22:52.944Z,993.44
2018-12-02T05:23:52.944Z,993.44
2018-12-02T05:24:54.655Z,993.44
2018-12-02T05:25:52.967Z,993.40
2018-12-02T05:26:52.968Z,993.43
2018-12-02T05:27:53.019Z,993.37
2018-12-02T05:28:54.773Z,993.38
2018-12-02T05:29:54.793Z,993.35
2018-12-02T05:30:54.737Z,993.34
2018-12-02T05:32:06.771Z,993.35
2018-12-02T05:32:54.740Z,993.29
2018-12-02T05:33:54.823Z,993.33
2018-12-02T05:35:54.833Z,993.34
2018-12-02T05:36:54.850Z,993.29
2018-12-02T05:37:54.649Z,993.29
2018-12-02T05:38:52.831Z,993.26
2018-12-02T05:39:52.859Z,993.26
2018-12-02T05:40:52.419Z,993.26
2018-12-02T05:41:52.670Z,993.27
2018-12-02T05:42:52.859Z,993.24
2018-12-02T05:43:52.685Z,993.26
2018-12-02T05:44:52.716Z,993.21
2018-12-02T05:45:53.430Z,993.18
2018-12-02T05:46:52.986Z,993.19
2018-12-02T05:47:55.012Z,993.20
2018-12-02T05:48:53.034Z,993.22
2018-12-02T05:49:53.052Z,993.16
2018-12-02T05:50:53.028Z,993.18
2018-12-02T05:51:52.999Z,993.18
2018-12-02T05:52:53.041Z,993.14
2018-12-02T05:53:53.034Z,993.14
2018-12-02T05:54:53.046Z,993.07
2018-12-02T05:55:53.015Z,993.07
2018-12-02T05:56:52.994Z,993.08
2018-12-02T05:57:53.478Z,993.10
2018-12-02T05:58:52.937Z,993.09
2018-12-02T05:59:53.047Z,993.11
2018-12-02T06:00:52.966Z,993.12
2018-12-02T06:01:53.039Z,993.05
2018-12-02T06:02:53.024Z,993.12
2018-12-02T06:03:53.459Z,993.04
2018-12-02T06:04:52.819Z,993.04
2018-12-02T06:05:52.541Z,993.06
2018-12-02T06:06:52.932Z,993.01
2018-12-02T06:07:53.023Z,993.03
2018-12-02T06:09:53.021Z,993.00
2018-12-02T06:10:53.015Z,992.95
2018-12-02T06:11:53.021Z,992.95
2018-12-02T06:12:53.020Z,992.95
2018-12-02T06:13:53.031Z,992.93
2018-12-02T06:14:52.987Z,992.86
2018-12-02T06:15:52.987Z,992.91
2018-12-02T06:16:53.028Z,992.91
2018-12-02T06:17:53.028Z,992.86
2018-12-02T06:18:53.036Z,992.86
2018-12-02T06:19:53.451Z,992.87
2018-12-02T06:20:52.780Z,992.82
2018-12-02T06:21:52.533Z,992.84
2018-12-02T06:22:53.400Z,992.79
2018-12-02T06:23:53.061Z,992.82
2018-12-02T06:24:53.090Z,992.78
2018-12-02T06:25:53.466Z,992.72
2018-12-02T06:26:52.762Z,992.75
2018-12-02T06:27:52.742Z,992.73
2018-12-02T06:28:52.696Z,992.72
2018-12-02T06:29:52.486Z,992.71
2018-12-02T06:30:52.989Z,992.67
2018-12-02T06:31:53.013Z,992.62
2018-12-02T06:32:53.032Z,992.67
2018-12-02T06:33:53.014Z,992.70
2018-12-02T06:34:53.050Z,992.70
2018-12-02T06:35:53.015Z,992.65
2018-12-02T06:36:53.007Z,992.60
2018-12-02T06:37:53.039Z,992.63
2018-12-02T06:38:53.471Z,992.61
2018-12-02T06:39:52.979Z,992.66
2018-12-02T06:40:52.527Z,992.57
2018-12-02T06:41:53.486Z,992.56
2018-12-02T06:42:52.187Z,992.50
2018-12-02T06:43:52.664Z,992.50
2018-12-02T06:44:53.016Z,992.45
2018-12-02T06:45:53.053Z,992.50
2018-12-02T06:46:53.041Z,992.53
2018-12-02T06:47:53.209Z,992.48
2018-12-02T06:48:53.130Z,992.50
2018-12-02T06:49:53.077Z,992.49
2018-12-02T06:50:52.973Z,992.51
2018-12-02T06:51:54.242Z,992.50
2018-12-02T06:52:52.718Z,992.52
2018-12-02T06:53:54.251Z,992.48
2018-12-02T06:54:54.373Z,992.53
2018-12-02T06:55:53.019Z,992.55
2018-12-02T06:56:52.975Z,992.58
2018-12-02T06:57:53.115Z,992.54
2018-12-02T06:58:53.077Z,992.55
2018-12-02T06:59:53.048Z,992.58
2018-12-02T07:00:54.151Z,992.56
2018-12-02T07:01:54.217Z,992.55
2018-12-02T07:02:54.258Z,992.56
2018-12-02T07:03:54.211Z,992.55
2018-12-02T07:04:54.132Z,992.52
2018-12-02T07:05:52.263Z,992.52
2018-12-02T07:06:52.499Z,992.51
2018-12-02T07:07:52.420Z,992.60
2018-12-02T07:08:52.513Z,992.59
2018-12-02T07:09:52.280Z,992.53
2018-12-02T07:10:52.526Z,992.49
2018-12-02T07:11:52.937Z,992.48
2018-12-02T07:12:52.157Z,992.44
2018-12-02T07:13:52.184Z,992.50
2018-12-02T07:14:51.989Z,992.50
2018-12-02T07:15:52.963Z,992.46
2018-12-02T07:16:52.224Z,992.44
2018-12-02T07:17:52.473Z,992.46
2018-12-02T07:18:52.326Z,992.42
2018-12-02T07:19:52.345Z,992.37
2018-12-02T07:20:52.407Z,992.41
2018-12-02T07:21:52.279Z,992.36
2018-12-02T07:22:54.310Z,992.32
2018-12-02T07:23:52.428Z,992.39
2018-12-02T07:24:52.392Z,992.30
2018-12-02T07:25:58.278Z,992.30
2018-12-02T07:26:52.382Z,992.30
2018-12-02T07:27:52.508Z,992.28
2018-12-02T07:28:52.462Z,992.24
2018-12-02T07:29:52.483Z,992.27
2018-12-02T07:30:52.298Z,992.28
2018-12-02T07:31:52.380Z,992.24
2018-12-02T07:32:52.408Z,992.29
2018-12-02T07:33:58.357Z,992.28
2018-12-02T07:34:52.297Z,992.26
2018-12-02T07:35:52.501Z,992.22
2018-12-02T07:36:52.230Z,992.26
2018-12-02T07:37:52.250Z,992.27
2018-12-02T07:38:52.384Z,992.24
2018-12-02T07:39:52.339Z,992.27
2018-12-02T07:40:52.312Z,992.22
2018-12-02T07:41:52.261Z,992.29
2018-12-02T07:42:52.376Z,992.24
2018-12-02T07:43:52.450Z,992.21
2018-12-02T07:44:52.418Z,992.18
2018-12-02T07:45:58.507Z,992.19
2018-12-02T07:46:52.374Z,992.21
2018-12-02T07:47:52.482Z,992.20
2018-12-02T07:48:52.362Z,992.17
2018-12-02T07:49:52.330Z,992.11
2018-12-02T07:50:52.451Z,992.09
2018-12-02T07:51:52.419Z,992.08
2018-12-02T07:52:52.306Z,992.08
2018-12-02T07:53:52.367Z,992.11
2018-12-02T07:54:52.234Z,992.04
2018-12-02T07:55:52.510Z,992.04
2018-12-02T07:56:52.419Z,992.07
2018-12-02T07:57:52.472Z,992.07
2018-12-02T07:58:52.256Z,992.04
2018-12-02T07:59:52.457Z,992.05
2018-12-02T08:00:52.409Z,992.03
2018-12-02T08:01:58.329Z,992.03
2018-12-02T08:02:52.302Z,991.99
2018-12-02T08:03:58.373Z,991.97
2018-12-02T08:04:52.332Z,992.04
2018-12-02T08:05:52.279Z,992.01
2018-12-02T08:06:52.319Z,991.97
2018-12-02T08:07:52.176Z,991.97
2018-12-02T08:08:52.376Z,991.90
2018-12-02T08:09:58.545Z,991.93
2018-12-02T08:10:52.512Z,991.85
2018-12-02T08:11:52.658Z,991.86
2018-12-02T08:12:52.079Z,991.79
2018-12-02T08:13:52.997Z,991.79
2018-12-02T08:14:52.245Z,991.82
2018-12-02T08:15:53.213Z,991.80
2018-12-02T08:16:52.166Z,991.78
2018-12-02T08:17:53.703Z,991.78
2018-12-02T08:18:53.752Z,991.76
2018-12-02T08:19:52.565Z,991.80
2018-12-02T08:20:51.436Z,991.80
2018-12-02T08:21:54.501Z,991.81
2018-12-02T08:22:53.755Z,991.70
2018-12-02T08:23:54.029Z,991.76
2018-12-02T08:24:53.906Z,991.68
2018-12-02T08:25:51.736Z,991.66
2018-12-02T08:26:51.960Z,991.74
2018-12-02T08:27:51.909Z,991.72
2018-12-02T08:28:51.761Z,991.69
2018-12-02T08:29:53.670Z,991.64
2018-12-02T08:30:51.587Z,991.68
2018-12-02T08:31:53.741Z,991.66
2018-12-02T08:32:53.712Z,991.72
2018-12-02T08:33:51.849Z,991.79
2018-12-02T08:34:51.696Z,991.71
2018-12-02T08:35:51.831Z,991.72
2018-12-02T08:36:51.726Z,991.69
2018-12-02T08:37:51.946Z,991.76
2018-12-02T08:38:51.778Z,991.68
2018-12-02T08:39:51.642Z,991.78
2018-12-02T08:40:51.632Z,991.75
2018-12-02T08:41:51.758Z,991.76
2018-12-02T08:42:51.642Z,991.76
2018-12-02T08:43:51.894Z,991.76
2018-12-02T08:44:51.810Z,991.74
2018-12-02T08:45:52.016Z,991.73
2018-12-02T08:46:58.775Z,991.70
2018-12-02T08:47:52.209Z,991.76
2018-12-02T08:48:53.229Z,991.77
2018-12-02T08:49:57.762Z,991.82
2018-12-02T08:50:51.979Z,991.82
2018-12-02T08:51:52.506Z,991.80
2018-12-02T08:52:51.887Z,991.77
2018-12-02T08:53:51.725Z,991.77
2018-12-02T08:54:51.785Z,991.70
2018-12-02T08:55:52.302Z,991.70
2018-12-02T08:56:52.074Z,991.72
2018-12-02T08:57:52.087Z,991.69
2018-12-02T08:58:51.708Z,991.72
2018-12-02T08:59:51.758Z,991.72
2018-12-02T09:00:52.295Z,991.66
2018-12-02T09:01:52.510Z,991.60
2018-12-02T09:02:51.737Z,991.66
2018-12-02T09:03:51.445Z,991.68
2018-12-02T09:04:51.852Z,991.64
2018-12-02T09:05:51.839Z,991.64
2018-12-02T09:06:51.314Z,991.64
2018-12-02T09:07:51.934Z,991.59
2018-12-02T09:08:51.783Z,991.65
2018-12-02T09:09:59.384Z,991.64
2018-12-02T09:10:57.916Z,991.65
2018-12-02T09:11:52.322Z,991.60
2018-12-02T09:12:52.036Z,991.61
2018-12-02T09:13:51.695Z,991.58
2018-12-02T09:14:52.149Z,991.60
2018-12-02T09:15:51.784Z,991.63
2018-12-02T09:16:51.805Z,991.61
2018-12-02T09:17:51.839Z,991.65
2018-12-02T09:18:52.491Z,991.57
2018-12-02T09:19:51.975Z,991.57
2018-12-02T09:20:51.769Z,991.58
2018-12-02T09:21:51.625Z,991.57
2018-12-02T09:22:51.984Z,991.57
2018-12-02T09:23:51.709Z,991.64
2018-12-02T09:24:51.293Z,991.58
2018-12-02T09:25:52.294Z,991.57
2018-12-02T09:26:57.797Z,991.53
2018-12-02T09:27:51.831Z,991.61
2018-12-02T09:28:58.274Z,991.63
2018-12-02T09:29:52.513Z,991.62
2018-12-02T09:30:51.698Z,991.58
2018-12-02T09:31:52.451Z,991.59
2018-12-02T09:32:52.476Z,991.61
2018-12-02T09:33:51.737Z,991.60
2018-12-02T09:34:51.681Z,991.64
2018-12-02T09:35:51.646Z,991.68
2018-12-02T09:36:51.685Z,991.65
2018-12-02T09:37:51.795Z,991.63
2018-12-02T09:38:52.515Z,991.54
2018-12-02T09:39:51.741Z,991.55
2018-12-02T09:40:51.768Z,991.55
2018-12-02T09:41:51.829Z,991.55
2018-12-02T09:42:51.748Z,991.54
2018-12-02T09:43:51.687Z,991.61
2018-12-02T09:44:51.679Z,991.49
2018-12-02T09:45:51.620Z,991.53
2018-12-02T09:46:51.795Z,991.46
2018-12-02T09:47:51.286Z,991.45
2018-12-02T09:48:52.028Z,991.46
2018-12-02T09:49:52.107Z,991.46
2018-12-02T09:50:51.552Z,991.49
2018-12-02T09:51:51.951Z,991.45
2018-12-02T09:52:51.089Z,991.45
2018-12-02T09:54:26.589Z,991.43
2018-12-02T09:54:53.238Z,991.44
2018-12-02T09:55:53.380Z,991.46
2018-12-02T09:56:53.266Z,991.48
2018-12-02T09:57:53.181Z,991.44
2018-12-02T09:58:53.375Z,991.48
2018-12-02T09:59:52.039Z,991.44
2018-12-02T10:00:52.111Z,991.43
2018-12-02T10:01:50.642Z,991.41
2018-12-02T10:02:52.023Z,991.41
2018-12-02T10:03:51.342Z,991.48
2018-12-02T10:04:51.085Z,991.45
2018-12-02T10:05:51.820Z,991.47
2018-12-02T10:06:51.203Z,991.44
2018-12-02T10:07:51.050Z,991.47
2018-12-02T10:08:51.137Z,991.43
2018-12-02T10:09:58.257Z,991.43
2018-12-02T10:10:50.931Z,991.50
2018-12-02T10:11:51.465Z,991.41
2018-12-02T10:12:51.385Z,991.47
2018-12-02T10:13:51.326Z,991.48
2018-12-02T10:14:52.106Z,991.49
2018-12-02T10:15:51.257Z,991.45
2018-12-02T10:16:51.599Z,991.49
2018-12-02T10:17:51.190Z,991.49
2018-12-02T10:18:51.475Z,991.48
2018-12-02T10:19:51.277Z,991.41
2018-12-02T10:20:51.224Z,991.47
2018-12-02T10:21:51.232Z,991.44
2018-12-02T10:22:49.396Z,991.42
2018-12-02T10:23:49.456Z,991.42
2018-12-02T10:24:49.417Z,991.41
2018-12-02T10:25:49.386Z,991.42
2018-12-02T10:26:49.344Z,991.36
2018-12-02T10:27:49.357Z,991.36
2018-12-02T10:28:51.396Z,991.37
2018-12-02T10:29:49.334Z,991.33
2018-12-02T10:30:49.320Z,991.33
2018-12-02T10:31:49.324Z,991.33
2018-12-02T10:32:50.530Z,991.33
2018-12-02T10:33:49.371Z,991.36
2018-12-02T10:34:49.320Z,991.37
2018-12-02T10:35:49.301Z,991.32
2018-12-02T10:36:49.297Z,991.32
2018-12-02T10:37:49.303Z,991.31
2018-12-02T10:38:49.289Z,991.31
2018-12-02T10:39:50.285Z,991.35
2018-12-02T10:40:49.267Z,991.33
2018-12-02T10:41:49.258Z,991.30
2018-12-02T10:42:49.341Z,991.30
2018-12-02T10:43:49.265Z,991.29
2018-12-02T10:44:50.542Z,991.34
2018-12-02T10:45:53.204Z,991.31
2018-12-02T10:46:49.278Z,991.28
2018-12-02T10:47:49.257Z,991.25
2018-12-02T10:48:49.237Z,991.25
2018-12-02T10:49:49.228Z,991.26
2018-12-02T10:50:49.260Z,991.25
2018-12-02T10:51:52.029Z,991.20
2018-12-02T10:52:49.208Z,991.26
2018-12-02T10:53:49.269Z,991.26
2018-12-02T10:54:49.218Z,991.27
2018-12-02T10:55:49.564Z,991.20
2018-12-02T10:56:49.224Z,991.31
2018-12-02T10:57:49.229Z,991.25
2018-12-02T10:58:52.904Z,991.30
2018-12-02T10:59:49.353Z,991.20
2018-12-02T11:00:49.179Z,991.24
2018-12-02T11:01:49.160Z,991.22
2018-12-02T11:02:49.193Z,991.24
2018-12-02T11:03:49.295Z,991.27
2018-12-02T11:04:50.948Z,991.23
2018-12-02T11:05:49.231Z,991.24
2018-12-02T11:06:50.312Z,991.23
2018-12-02T11:07:49.188Z,991.24
2018-12-02T11:08:51.297Z,991.24
2018-12-02T11:09:49.171Z,991.25
2018-12-02T11:10:49.154Z,991.22
2018-12-02T11:11:51.034Z,991.20
2018-12-02T11:12:50.296Z,991.23
2018-12-02T11:14:01.006Z,991.15
2018-12-02T11:14:51.012Z,991.20
2018-12-02T11:15:51.316Z,991.32
2018-12-02T11:16:49.978Z,991.22
2018-12-02T11:17:50.323Z,991.22
2018-12-02T11:18:49.096Z,991.19
2018-12-02T11:19:49.095Z,991.23
2018-12-02T11:20:50.607Z,991.22
2018-12-02T11:21:51.360Z,991.19
2018-12-02T11:22:50.915Z,991.16
2018-12-02T11:23:57.086Z,991.09
2018-12-02T11:24:49.055Z,991.24
2018-12-02T11:25:52.650Z,991.21
2018-12-02T11:26:51.613Z,991.18
2018-12-02T11:27:49.072Z,991.20
2018-12-02T11:28:51.774Z,991.13
2018-12-02T11:29:49.046Z,991.08
2018-12-02T11:30:48.995Z,991.09
2018-12-02T11:31:49.015Z,991.17
2018-12-02T11:32:49.014Z,991.13
2018-12-02T11:33:55.617Z,991.11
2018-12-02T11:34:55.589Z,991.10
2018-12-02T11:35:49.005Z,991.14
2018-12-02T11:36:49.109Z,991.10
2018-12-02T11:37:49.003Z,991.13
2018-12-02T11:38:49.048Z,991.15
2018-12-02T11:39:50.819Z,991.04
2018-12-02T11:40:48.969Z,991.14
2018-12-02T11:41:50.231Z,991.11
2018-12-02T11:42:50.341Z,991.17
2018-12-02T11:43:48.973Z,991.15
2018-12-02T11:44:48.980Z,991.12
2018-12-02T11:45:50.683Z,991.17
2018-12-02T11:46:48.941Z,991.11
2018-12-02T11:47:50.578Z,991.16
2018-12-02T11:48:49.044Z,991.17
2018-12-02T11:49:50.587Z,991.25
2018-12-02T11:50:48.931Z,991.14
2018-12-02T11:51:48.960Z,991.16
2018-12-02T11:52:50.314Z,991.12
2018-12-02T11:53:48.938Z,991.19
2018-12-02T11:54:48.926Z,991.19
2018-12-02T11:56:16.607Z,991.13
2018-12-02T11:56:50.729Z,991.18
2018-12-02T11:57:48.938Z,991.21
2018-12-02T11:58:49.271Z,991.19
2018-12-02T11:59:48.893Z,991.17
2018-12-02T12:00:48.942Z,991.22
2018-12-02T12:01:48.903Z,991.11
2018-12-02T12:02:48.903Z,991.12
2018-12-02T12:03:48.875Z,991.19
2018-12-02T12:04:48.870Z,991.17
2018-12-02T12:05:48.851Z,991.14
2018-12-02T12:06:50.656Z,991.18
2018-12-02T12:07:48.866Z,991.21
2018-12-02T12:08:51.334Z,991.15
2018-12-02T12:09:51.031Z,991.24
2018-12-02T12:10:49.021Z,991.20
2018-12-02T12:11:48.823Z,991.21
2018-12-02T12:12:50.517Z,991.23
2018-12-02T12:13:48.852Z,991.19
2018-12-02T12:14:51.657Z,991.20
2018-12-02T12:15:48.848Z,991.18
2018-12-02T12:16:48.821Z,991.22
2018-12-02T12:17:48.908Z,991.24
2018-12-02T12:18:48.806Z,991.24
2018-12-02T12:19:48.812Z,991.27
2018-12-02T12:20:48.831Z,991.25
2018-12-02T12:21:49.601Z,991.24
2018-12-02T12:22:48.920Z,991.21
2018-12-02T12:23:48.790Z,991.15
2018-12-02T12:24:48.770Z,991.17
2018-12-02T12:25:48.743Z,991.19
2018-12-02T12:26:48.767Z,991.15
2018-12-02T12:27:48.815Z,991.23
2018-12-02T12:28:48.856Z,991.17
2018-12-02T12:29:48.745Z,991.10
2018-12-02T12:30:48.765Z,991.11
2018-12-02T12:32:12.611Z,991.15
2018-12-02T12:32:48.768Z,991.17
2018-12-02T12:33:48.827Z,991.17
2018-12-02T12:34:48.741Z,991.17
2018-12-02T12:35:48.761Z,991.15
2018-12-02T12:36:48.759Z,991.10
2018-12-02T12:37:48.757Z,991.17
2018-12-02T12:38:50.448Z,991.18